Tiempo atmosférico en la estación meteorológica de Gran Canaria Aeropuerto, Las Palmas (24 m.)



Fecha
DESCASC
Temp. máxima en grados centígrados (hora)
DESCASC
Temp. mínima en grados centígrados (hora)
DESCASC
Temp. media en grados centígrados
DESCASC
Racha de viento máxima en m/sg (hora)
DESCASC
Velocidad máxima media en intervalos de 10 minutos(hora)
DESCASC
Precipitaciones diarias en mm
DESCASC
Precipitaciones de 00:00 a 06:00 en mm
DESCASC
Precipitaciones de 06:00 a 12:00 en mm
DESCASC
Precipitaciones de 12:00 a 18:00 en mm
DESCASC
Precipitaciones de 18:00 a 24:00 en mm
DESCASC
18-01-2018 21.6 (12:20) 16.2 (00:50) 18.9 13.89 (14:30) 8.61 (13:40) 0.1 0.1 0 0 0
17-01-2018 21 (14:50) 16.3 (05:20) 18.6 16.11 (13:00) 11.11 (11:40) 0 0 0 0 0
16-01-2018 19.3 (12:00) 15.5 (05:50) 17.4 18.61 (11:50) 13.61 (14:20) 0.1 0.1 0 0 0
15-01-2018 19.8 (12:00) 15.3 (03:40) 17.5 18.06 (12:50) 11.11 (15:20) -- 0 -- 1.4 0
14-01-2018 19 (16:10) 15.3 (00:00) 17.2 13.89 (15:10) 9.72 (15:10) 2 0.7 1.3 0 0
13-01-2018 20.5 (14:40) 16.8 (00:00) 18.6 12.5 (14:20) 9.72 (14:50) 0.3 0 0 0 0.3
12-01-2018 20.7 (14:00) 15.5 (00:00) 18.1 10.83 (16:20) 8.06 (16:40) 0 0 0 0 0
11-01-2018 20.4 (12:40) 16.5 (00:00) 18.4 12.78 (16:10) 10 (16:20) 0 0 0 0 0
10-01-2018 22.3 (13:40) 14.7 (00:00) 18.5 12.78 (14:40) 10 (14:40) 0 0 0 0 0
09-01-2018 20.5 (12:00) 14.4 (00:00) 17.4 8.33 (11:50) 5.83 (12:00) 0 0 0 0 0
08-01-2018 20.4 (12:30) 15.4 (00:00) 17.9 10.28 (12:30) 7.22 (12:00) 0 0 0 0 0
07-01-2018 19.9 (14:50) 14 (00:00) 16.9 15 (12:00) 8.61 (15:10) 3.3 2.8 0.5 0 0
06-01-2018 20.5 (14:40) 14.5 (00:00) 17.5 16.11 (15:30) 10.56 (15:30) 0.9 0 0 0 0.9
05-01-2018 20.2 (12:10) 14.5 (00:00) 17.4 10.28 (11:00) 7.22 (12:20) 0 0 0 0 0
04-01-2018 21.4 (13:10) 15.9 (23:59) 18.6 10.83 (12:00) 8.61 (13:20) 0 0 0 0 0
03-01-2018 23.1 (13:00) 16.4 (00:00) 19.8 9.72 (11:00) 7.5 (11:10) 0 0 0 0 0
02-01-2018 24.2 (15:10) 17.3 (00:00) 20.8 9.72 (08:30) 7.78 (17:30) 0 0 0 0 0
01-01-2018 23.1 (15:50) 17.3 (00:00) 20.2 14.44 (17:00) 9.72 (16:50) 0 0 0 0 0
31-12-2017 24 (13:30) 17.2 (00:00) 20.6 11.39 (21:10) 7.78 (14:00) 0 0 0 0 0
30-12-2017 20.5 (13:30) 17.2 (00:00) 18.9 7.22 (02:20) 4.44 (01:20) 0 0 0 0 0
29-12-2017 20.3 (11:10) 17.2 (00:00) 18.8 11.67 (05:00) 9.72 (11:10) 0 0 0 0 0
28-12-2017 22.3 (13:00) 17 (00:00) 19.6 15 (15:30) 11.39 (13:40) 0 0 0 0 0
27-12-2017 20.9 (13:20) 15.4 (00:00) 18.1 11.67 (12:30) 8.89 (15:00) 0 0 0 0 0
26-12-2017 20.5 (12:00) 14.6 (00:00) 17.6 8.89 (10:30) 5.56 (12:10) 0 0 0 0 0
25-12-2017 20.1 (12:20) 13.7 (00:00) 16.9 7.78 (13:10) 4.72 (13:10) 0 0 0 0 0
24-12-2017 19.5 (12:40) 13.6 (00:00) 16.6 12.78 (14:30) 5.83 (01:20) 0 0 0 0 0
23-12-2017 20.2 (12:40) 14.9 (00:00) 17.6 8.33 (12:30) 5 (14:40) 0 0 0 0 0
22-12-2017 20.5 (14:50) 15.9 (00:00) 18.2 9.17 (00:10) 7.22 (00:20) 0 0 0 0 0

Gráficas

Temp. máximas Temp. mínimas Temp. medias Precipitaciones Rachas de viento máximas Velocidades máximas media en intervalos de 10 minutos

Datos horarios

Fecha y hora oficial Temperatura (ºC) Velocidad del viento (km/h) Dirección del viento Racha (km/h) Dirección de racha Precipitación (mm) Presión (hPa) Tendencia (hPa) Humedad (%)
2018-01-20 23:00:00 16.6 17 Norte 28 Norte 0 1022.7 1.1 80
2018-01-20 22:00:00 16.8 17 Norte 28 Norte 0 1021.9 0.5 78
2018-01-20 21:00:00 16.7 15 Norte 26 Norte 0 1021.7 1 78
2018-01-20 20:00:00 17.5 17 Norte 28 Norte 0 1021.6 1.2 76
2018-01-20 19:00:00 17.7 16 Norte 35 Norte 0 1021.4 1.1 73
2018-01-20 18:00:00 18.4 22 Norte 35 Norte 0 1020.7 0.4 67
2018-01-20 17:00:00 19.3 28 Norte 39 Norte 0 1020.4 -0.1 63
2018-01-20 16:00:00 19.8 27 Norte 42 Norte 0 1020.3 -1.1 61
2018-01-20 15:00:00 20.1 28 Norte 45 Norte 0 1020.3 -1.7 60
2018-01-20 14:00:00 20.8 37 Norte 46 Nordeste 0 1020.5 -2.2 53
2018-01-20 13:00:00 20.8 33 Norte 50 Norte 0 1021.4 -0.6 54
2018-01-20 12:00:00 20.3 28 Norte 48 Norte 0 1022 1.2 54
2018-01-20 11:00:00 19.3 32 Norte 45 Norte 0 1022.7 2 64
2018-01-20 10:00:00 19 30 Norte 42 Norte 0 1022 2 62
2018-01-20 09:00:00 18.1 21 Norte 33 Norte 0 1020.8 1.2 68
2018-01-20 08:00:00 17.2 23 Norte 37 Norte 0 1020.7 1.7 75
2018-01-20 07:00:00 16.7 19 Norte 33 Norte 0 1020 1.1 77
2018-01-20 06:00:00 17.1 18 Norte 41 Norte 0 1019.6 0.5 72
2018-01-20 05:00:00 16.9 24 Norte 48 Norte 0 1019 -0.6 74
2018-01-20 04:00:00 17.1 27 Norte 46 Norte 0 1018.9 -1 77
2018-01-20 03:00:00 17.5 23 Norte 48 Norte 0 1019.1 -1.3 65
2018-01-20 02:00:00 17.4 24 Norte 45 Norte 0 1019.6 -1.1 66
2018-01-20 01:00:00 17.8 28 Norte 50 Norte 0 1019.9 -0.5 64
2018-01-20 00:00:00 17.8 25 Norte 48 Norte 0 1020.4 0.4 63
2018-01-19 23:00:00 17.9 29 Norte 48 Norte 0 1020.7 1.3 64
2018-01-19 22:00:00 18 26 Norte 46 Norte 0 1020.4 1.8 64
2018-01-19 21:00:00 18 22 Norte 46 Norte 0 1020 2 62
2018-01-19 20:00:00 17.9 27 Norte 50 Norte 0 1019.4 1.4 63
2018-01-19 19:00:00 18.2 32 Norte 55 Norte 0 1018.6 0.7 63
2018-01-19 18:00:00 18.6 34 Norte 55 Norte 0 1018 -0.2 63
2018-01-19 17:00:00 19.1 41 Norte 58 Norte 0 1018 -0.7 58
2018-01-19 16:00:00 19.9 37 Norte 58 Norte 0 1017.9 -1.3 56
2018-01-19 15:00:00 19.9 32 Norte 54 Norte 0 1018.2 -1.4 57
2018-01-19 14:00:00 20.1 30 Norte 50 Norte 0 1018.7 -0.7 55
2018-01-19 13:00:00 20.4 26 Norte 52 Norte 0 1019.2 0.3 55
2018-01-19 12:00:00 20.6 33 Norte 54 Norte 0 1019.6 1.6 52
2018-01-19 11:00:00 19.2 32 Norte 54 Norte 0 1019.4 1.7 60
2018-01-19 10:00:00 18.7 31 Norte 52 Norte 0 1018.9 1.4 59
2018-01-19 09:00:00 17.5 27 Noroeste 46 Norte 0 1018 1.5 65
2018-01-19 08:00:00 17.1 25 Norte 42 Norte 0 1017.7 1.4 67
2018-01-19 07:00:00 17 17 Norte 41 Noroeste 0 1017.5 1 65
2018-01-19 06:00:00 17.3 33 Norte 50 Norte 0 1016.5 -0.5 64
2018-01-19 05:00:00 17.3 23 Norte 54 Noroeste 0 1016.3 -0.9 65
2018-01-19 04:00:00 17.3 32 Norte 52 Norte 0 1016.5 -1.1 66
2018-01-19 03:00:00 17.6 20 Norte 33 Norte 0 1017 -0.8 63
2018-01-19 02:00:00 17.6 19 Norte 35 Norte 0 1017.2 -0.4 60
2018-01-19 01:00:00 17.4 16 Norte 37 Noroeste 0 1017.6 0.1 69
2018-01-19 00:00:00 17.7 14 Norte 32 Norte 0 1017.8 0.8 65
2018-01-18 23:00:00 17.8 23 Norte 41 Noroeste 0 1017.6 1.1 61
2018-01-18 22:00:00 17.6 17 Norte 37 Norte 0 1017.5 1.1 68
2018-01-18 21:00:00 17.8 22 Norte 41 Norte 0 1017 0.5 65
2018-01-18 20:00:00 17.7 22 Norte 45 Norte 0 1016.5 0.2 64
2018-01-18 19:00:00 17.7 18 Norte 39 Norte 0 1016.4 0.5 63
2018-01-18 18:00:00 18.9 23 Norte 37 Norte 0 1016.5 0.6 62
2018-01-18 17:00:00 20.1 26 Norte 45 Norte 0 1016.3 0.4 54
2018-01-18 16:00:00 20.5 26 Noroeste 50 Noroeste 0 1015.9 -0.4 55
2018-01-18 15:00:00 19.6 26 Noroeste 50 Norte 0 1015.9 -1 63
2018-01-18 14:00:00 19.6 27 Norte 46 Noroeste 0 1015.9 -1.2 70
2018-01-18 13:00:00 21.3 28 Norte 46 Norte 0 1016.3 -0.5 49
2018-01-18 12:00:00 20.9 21 Norte 41 Norte 0 1016.9 0.9 47
2018-01-18 11:00:00 20.2 28 Norte 48 Norte 0 1017.1 1.5 47
2018-01-18 10:00:00 18.8 25 Noroeste 48 Noroeste 0 1016.8 1.8 60
2018-01-18 09:00:00 17.1 19 Noroeste 32 Norte 0 1016 1.2 62
2018-01-18 08:00:00 16.8 25 Noroeste 42 Noroeste 0 1015.6 0.6 57
2018-01-18 07:00:00 16.7 13 Norte 37 Norte 0 1015 -0.3 78
2018-01-18 06:00:00 16.6 16 Norte 32 Norte 0 1014.8 -0.6 83
2018-01-18 05:00:00 16.6 21 Norte 39 Noroeste 0 1015 -0.8 78
2018-01-18 04:00:00 16.7 14 Norte 33 Norte 0 1015.3 -0.9 75
2018-01-18 03:00:00 17 17 Noroeste 33 Norte 0 1015.4 -1 75
2018-01-18 02:00:00 16.8 15 Norte 35 Norte 0 1015.8 -0.8 82
2018-01-18 01:00:00 16.2 13 Norte 33 Noroeste 0.1 1016.2 -0.5 88
2018-01-18 00:00:00 17.9 17 Norte 32 Norte 0 1016.4 -0.1 69
2018-01-17 23:00:00 17.6 18 Norte 39 Noroeste 0 1016.6 0.6 71
2018-01-17 22:00:00 17.5 23 Norte 37 Norte 0 1016.7 0.8 69
2018-01-17 21:00:00 17.4 24 Norte 46 Norte 0 1016.5 0.5 69
2018-01-17 20:00:00 17.6 22 Norte 45 Norte 0 1016 0.2 64
2018-01-17 19:00:00 17.7 29 Norte 48 Norte 0 1015.9 0.3 71
2018-01-17 18:00:00 18.5 30 Norte 50 Norte 0 1016 0.4 66
2018-01-17 17:00:00 19.2 31 Norte 52 Norte 0 1015.8 -0.4 63
2018-01-17 16:00:00 20.1 30 Norte 54 Norte 0 1015.6 -1 58
2018-01-17 15:00:00 20.6 30 Norte 50 Norte 0 1015.6 -2 56
2018-01-17 14:00:00 20.5 33 Norte 54 Norte 0 1016.2 -2.1 56
2018-01-17 13:00:00 20.2 32 Norte 58 Norte 0 1016.6 -1.4 57
2018-01-17 12:00:00 19.7 37 Norte 55 Norte 0 1017.6 -0.2 59
2018-01-17 11:00:00 19.3 33 Norte 50 Norte 0 1018.3 1.2 62
2018-01-17 10:00:00 18.4 29 Norte 46 Norte 0 1018 1.2 66
2018-01-17 09:00:00 17.4 30 Norte 48 Norte 0 1017.8 1.3 71
2018-01-17 08:00:00 16.7 24 Norte 46 Norte 0 1017.1 0.6 72
2018-01-17 07:00:00 16.3 24 Norte 35 Norte 0 1016.8 -0.2 74
2018-01-17 06:00:00 16.4 25 Norte 41 Norte 0 1016.5 -0.9 74
2018-01-17 05:00:00 16.6 22 Norte 46 Norte 0 1016.5 -0.8 72
2018-01-17 04:00:00 16.6 24 Norte 39 Norte 0 1017 -1.1 75
2018-01-17 03:00:00 16.5 23 Norte 41 Norte 0 1017.4 -1.2 75
2018-01-17 02:00:00 16.4 24 Norte 39 Norte 0 1017.3 -1.4 74
2018-01-17 01:00:00 16.7 22 Norte 39 Norte 0 1018.1 -0.3 72
2018-01-17 00:00:00 16.9 27 Norte 48 Norte 0 1018.6 0.4 69
2018-01-16 23:00:00 17.1 27 Norte 45 Norte 0 1018.7 1.1 71
2018-01-16 22:00:00 17.1 28 Norte 46 Norte 0 1018.4 1.4 70
2018-01-16 21:00:00 17.3 30 Norte 50 Norte 0 1018.2 1.9 68
2018-01-16 20:00:00 17.3 33 Norte 58 Norte 0 1017.6 1.4 67
2018-01-16 19:00:00 17.3 31 Norte 58 Norte 0 1017 0.6 67
2018-01-16 18:00:00 17.6 39 Norte 58 Norte 0 1016.3 -0.4 67
2018-01-16 17:00:00 18.2 39 Norte 59 Norte 0 1016.2 -0.9 64
2018-01-16 16:00:00 18.4 35 Norte 61 Norte 0 1016.4 -1.7 62
2018-01-16 15:00:00 18.6 35 Norte 65 Norte 0 1016.7 -1.9 61
2018-01-16 14:00:00 18.6 45 Norte 65 Norte 0 1017.1 -1.9 58
2018-01-16 13:00:00 18.4 45 Norte 65 Norte 0 1018.1 -1 58
2018-01-16 12:00:00 18.8 45 Norte 67 Norte 0 1018.6 0.3 55
2018-01-16 11:00:00 18.1 41 Norte 63 Norte 0 1019 0.9 52
2018-01-16 10:00:00 17.3 39 Norte 61 Norte 0 1019.1 1.1 55
2018-01-16 09:00:00 16.9 42 Norte 63 Norte 0 1018.3 0.5 52
2018-01-16 08:00:00 16.5 31 Norte 65 Norte 0 1018.1 0.5 60
2018-01-16 07:00:00 16.6 43 Norte 59 Norte 0 1018 0 57
2018-01-16 06:00:00 16 37 Norte 63 Norte 0.1 1017.8 -0.1 61
2018-01-16 05:00:00 16.6 33 Norte 59 Norte 0 1017.6 -0.4 56
2018-01-16 04:00:00 16.5 36 Norte 63 Norte 0 1018 -0.4 55
2018-01-16 03:00:00 16.6 30 Norte 65 Norte 0 1017.9 -1.2 54
2018-01-16 02:00:00 16.8 36 Norte 55 Norte 0 1018 -1.4 57
2018-01-16 01:00:00 16.8 33 Norte 65 Norte 0 1018.4 -1 52
2018-01-16 00:00:00 16.7 31 Norte 52 Norte 0 1019.1 -0.1 58
2018-01-15 23:00:00 16.8 33 Norte 55 Norte 0 1019.4 0.4 56
2018-01-15 22:00:00 16.5 31 Norte 52 Norte 0 1019.4 0.8 55
2018-01-15 21:00:00 16.4 27 Norte 50 Norte 0 1019.2 0.9 55
2018-01-15 20:00:00 16.5 32 Norte 48 Norte 0 1019 1 61
2018-01-15 19:00:00 16.5 29 Norte 48 Norte 0 1018.6 0.9 60
2018-01-15 18:00:00 16.9 27 Norte 52 Norte 0 1018.3 0.8 57
2018-01-15 17:00:00 17.6 34 Norte 55 Norte 0 1018 0.1 55
2018-01-15 16:00:00 17.8 36 Norte 58 Norte 0 1017.7 -0.9 64
2018-01-15 15:00:00 17.7 36 Norte 50 Norte 0 1017.5 -1.7 66
2018-01-15 14:00:00 16.8 24 Norte 58 Norte 0 1017.9 -1.2 80
2018-01-15 13:00:00 15.7 30 Norte 65 Norte 1.4 1018.6 -0.2 88
2018-01-15 12:00:00 19.3 34 Norte 55 Norte 0 1019.2 0.7 61
2018-01-15 11:00:00 19.4 32 Norte 55 Norte -- 1019.1 1.2 56
2018-01-15 10:00:00 18.4 31 Norte 52 Norte 0 1018.8 1.3 57
2018-01-15 09:00:00 16.9 22 Norte 35 Norte 0 1018.5 1.2 64
2018-01-15 08:00:00 15.8 17 Norte 41 Norte 0 1017.9 0.6 69
2018-01-15 07:00:00 16.1 21 Norte 39 Norte 0 1017.5 -0.3 69
2018-01-15 06:00:00 15.9 20 Norte 33 Norte 0 1017.3 -1.1 74
2018-01-15 05:00:00 15.3 14 Norte 28 Noroeste 0 1017.3 -1.6 74
2018-01-15 04:00:00 15.5 14 Norte 37 Norte 0 1017.8 -1.5 73
2018-01-15 03:00:00 16.3 18 Norte 39 Norte 0 1018.4 -1.5 72
2018-01-15 02:00:00 15.7 17 Norte 32 Noroeste 0 1018.9 -1.5 72
2018-01-15 01:00:00 16 18 Norte 35 Noroeste 0 1019.3 -0.8 70
2018-01-15 00:00:00 16.3 20 Norte 35 Noroeste 0 1019.9 0 68
2018-01-14 23:00:00 15.9 20 Norte 35 Norte 0 1020.4 0.9 67
2018-01-14 22:00:00 16 17 Norte 28 Norte 0 1020.1 0.9 67
2018-01-14 21:00:00 16.2 16 Norte 30 Norte 0 1019.9 1 65
2018-01-14 20:00:00 15.9 15 Norte 28 Noroeste 0 1019.5 0.8 65
2018-01-14 19:00:00 16.4 14 Norte 35 Norte 0 1019.2 0.7 62
2018-01-14 18:00:00 17.8 24 Norte 39 Norte 0 1018.9 -- 56
2018-01-14 17:00:00 18.2 29 Norte 42 Norte 0 1018.7 -0.1 60
2018-01-14 16:00:00 18.6 27 Norte 50 Norte 0 1018.5 -1.1 59
2018-01-14 15:00:00 -- -- -- -- -- -- -- -- --
2018-01-14 14:00:00 18.5 32 Norte 46 Norte 0 1018.8 -1.9 62
2018-01-14 13:00:00 18 30 Norte 41 Norte 0 1019.6 -0.6 66
2018-01-14 12:00:00 17 23 Norte 41 Norte 0.3 1020.5 1 76
2018-01-14 11:00:00 15.8 24 Noroeste 39 Noroeste 0.7 1020.7 1.9 86
2018-01-14 10:00:00 16.2 13 Norte 37 Norte 0.1 1020.2 1.7 84
2018-01-14 09:00:00 17.3 26 Norte 37 Norte 0 1019.5 1.6 72
2018-01-14 08:00:00 16 24 Noroeste 41 Norte 0 1018.8 1.1 89
2018-01-14 07:00:00 15.4 18 Norte 45 Norte 0.2 1018.5 0 94
2018-01-14 06:00:00 15.9 23 Norte 35 Norte 0.3 1017.9 -0.6 92
2018-01-14 05:00:00 15.7 13 Norte 24 Norte 0 1017.7 -1.2 89
2018-01-14 04:00:00 15.6 14 Norte 26 Noroeste 0.2 1018.5 -0.9 92
2018-01-14 03:00:00 16.4 14 Norte 24 Norte 0 1018.5 -1.3 84
2018-01-14 02:00:00 16.4 14 Norte 26 Norte 0 1018.9 -0.7 83
2018-01-14 01:00:00 16.3 16 Norte 28 Norte 0.2 1019.4 0.2 84
2018-01-14 00:00:00 16.9 20 Norte 32 Norte 0.3 1019.8 0.8 83
2018-01-13 23:00:00 17.6 17 Norte 35 Norte 0 1019.6 1.2 73
2018-01-13 22:00:00 17.7 19 Norte 32 Norte 0 1019.2 1 73
2018-01-13 21:00:00 17.8 24 Norte 39 Norte 0 1019 1.1 73
2018-01-13 20:00:00 17.7 19 Norte 35 Norte 0 1018.4 0.3 70
2018-01-13 19:00:00 17.9 21 Norte 35 Norte 0 1018.2 0 66
2018-01-13 18:00:00 18.2 25 Norte 42 Norte 0 1017.9 -0.3 64
2018-01-13 17:00:00 18.8 22 Norte 39 Norte 0 1018.1 -0.8 59
2018-01-13 16:00:00 19.3 22 Norte 42 Norte 0 1018.2 -1.3 53
2018-01-13 15:00:00 19.9 33 Norte 45 Norte 0 1018.2 -1.9 51
2018-01-13 14:00:00 20 28 Norte 42 Norte 0 1018.9 -1.3 49
2018-01-13 13:00:00 19.7 26 Norte 39 Norte 0 1019.5 -0.3 52
2018-01-13 12:00:00 18.9 23 Norte 37 Norte 0 1020.1 1.2 54
2018-01-13 11:00:00 18.4 19 Norte 32 Norte 0 1020.2 1.7 54
2018-01-13 10:00:00 17.6 17 Norte 32 Norte 0 1019.8 1.7 60
2018-01-13 09:00:00 17.2 15 Norte 26 Noroeste 0 1018.9 1.2 60
2018-01-13 08:00:00 16.9 13 Norte 32 Norte 0 1018.5 0.9 61
2018-01-13 07:00:00 17 13 Norte 30 Norte 0 1018.1 0.3 61
2018-01-13 06:00:00 17 15 Norte 24 Norte 0 1017.7 -0.1 62
2018-01-13 05:00:00 16.9 10 Norte 28 Norte 0 1017.6 -0.2 62
2018-01-13 04:00:00 17.1 14 Norte 28 Norte 0 1017.8 -0.4 61
2018-01-13 03:00:00 17.2 14 Norte 24 Norte 0 1017.8 -0.9 63
2018-01-13 02:00:00 17.4 13 Norte 22 Norte 0 1017.8 -1.3 62
2018-01-13 01:00:00 17.3 14 Norte 22 Norte 0 1018.2 -0.6 63
2018-01-13 00:00:00 17.2 16 Noroeste 24 Noroeste 0 1018.7 0.1 62
2018-01-12 23:00:00 17.2 12 Norte 28 Norte 0 1019.1 0.7 61
2018-01-12 22:00:00 17.5 15 Norte 26 Noroeste 0 1018.8 1 61
2018-01-12 21:00:00 17.6 13 Norte 32 Noroeste 0 1018.6 1.2 62
2018-01-12 20:00:00 17.8 15 Norte 32 Norte 0 1018.4 1.1 64
2018-01-12 19:00:00 17.9 25 Norte 33 Norte 0 1017.8 0.6 64
2018-01-12 18:00:00 18.6 22 Norte 37 Norte 0 1017.4 0 65
2018-01-12 17:00:00 19.3 28 Norte 39 Norte 0 1017.3 -0.5 60
2018-01-12 16:00:00 19.8 27 Norte 35 Nordeste 0 1017.2 -1.5 60
2018-01-12 15:00:00 20 24 Nordeste 33 Nordeste 0 1017.4 -2.1 60
2018-01-12 14:00:00 20.5 24 Nordeste 33 Nordeste 0 1017.8 -2.1 58
2018-01-12 13:00:00 20.3 22 Nordeste 33 Nordeste 0 1018.7 -1 58
2018-01-12 12:00:00 19.8 18 Norte 30 Norte 0 1019.5 0.1 59
2018-01-12 11:00:00 19.6 21 Nordeste 32 Norte 0 1019.9 1.1 58
2018-01-12 10:00:00 18.6 17 Norte 28 Noroeste 0 1019.7 1.1 61
2018-01-12 09:00:00 16.6 12 Norte 22 Norte 0 1019.4 0.9 67
2018-01-12 08:00:00 16.3 14 Norte 22 Norte 0 1018.8 0.3 68
2018-01-12 07:00:00 16 11 Norte 18 Norte 0 1018.6 -0.3 71
2018-01-12 06:00:00 15.6 9 Norte 21 Noroeste 0 1018.5 -0.9 72
2018-01-12 05:00:00 15.6 14 Norte 21 Norte 0 1018.5 -1.2 72
2018-01-12 04:00:00 15.9 15 Norte 22 Noroeste 0 1018.9 -1.4 71
2018-01-12 03:00:00 16 15 Norte 22 Norte 0 1019.4 -1.6 71
2018-01-12 02:00:00 16.1 13 Norte 26 Norte 0 1019.7 -1.6 72
2018-01-12 01:00:00 16.2 15 Norte 24 Noroeste 0 1020.3 -1 73
2018-01-12 00:00:00 16.6 13 Norte 26 Norte 0 1021 -0.1 74
2018-01-11 23:00:00 16.7 17 Norte 32 Norte 0 1021.3 0.7 71
2018-01-11 22:00:00 16.9 16 Norte 28 Norte 0 1021.3 0.8 69
2018-01-11 21:00:00 16.9 15 Norte 28 Norte 0 1021.1 0.7 67
2018-01-11 20:00:00 16.9 18 Norte 32 Norte 0 1020.6 0.2 68
2018-01-11 19:00:00 17.5 21 Norte 35 Norte 0 1020.5 0.1 65
2018-01-11 18:00:00 18.3 20 Norte 45 Norte 0 1020.4 0 62
2018-01-11 17:00:00 19.3 29 Norte 46 Norte 0 1020.4 -0.5 57
2018-01-11 16:00:00 19.7 33 Norte 45 Norte 0 1020.4 -1.3 58
2018-01-11 15:00:00 20 33 Norte 42 Nordeste 0 1020.4 -2.2 56
2018-01-11 14:00:00 20.2 33 Norte 41 Nordeste 0 1020.9 -2.1 57
2018-01-11 13:00:00 20 26 Norte 35 Nordeste 0 1021.7 -1.3 60
2018-01-11 12:00:00 19.2 21 Norte 33 Norte 0 1022.6 0.1 63
2018-01-11 11:00:00 18.9 28 Norte 35 Norte 0 1023 1.1 66
2018-01-11 10:00:00 18.2 23 Norte 35 Norte 0 1023 1.4 71
2018-01-11 09:00:00 18 25 Norte 35 Nordeste 0 1022.5 1.2 75
2018-01-11 08:00:00 17.9 25 Nordeste 35 Nordeste 0 1021.9 0.6 80
2018-01-11 07:00:00 17.9 25 Nordeste 37 Nordeste 0 1021.6 0 84
2018-01-11 06:00:00 18 28 Nordeste 37 Norte 0 1021.3 -0.6 87
2018-01-11 05:00:00 17.8 25 Nordeste 32 Nordeste 0 1021.3 -0.8 91
2018-01-11 04:00:00 17.8 13 Norte 24 Norte 0 1021.6 -0.9 89
2018-01-11 03:00:00 17.8 13 Norte 26 Norte 0 1021.9 -1.3 90
2018-01-11 02:00:00 18.6 12 Norte 26 Norte 0 1022.1 -1.4 75
2018-01-11 01:00:00 18.6 16 Norte 28 Norte 0 1022.5 -0.7 75
2018-01-11 00:00:00 18.4 12 Norte 30 Norte 0 1023.2 0.4 79
2018-01-10 23:00:00 18.1 12 Norte 24 Norte 0 1023.5 1.2 76
2018-01-10 22:00:00 18.4 14 Norte 26 Norte 0 1023.2 1.4 75
2018-01-10 21:00:00 18.5 16 Norte 30 Norte 0 1022.8 1.3 72
2018-01-10 20:00:00 18.6 18 Norte 32 Norte 0 1022.3 0.8 70
2018-01-10 19:00:00 18.8 16 Norte 37 Norte 0 1021.8 0.6 75
2018-01-10 18:00:00 19.5 22 Norte 35 Norte 0 1021.5 0.1 71
2018-01-10 17:00:00 19.9 27 Norte 39 Norte 0 1021.5 -0.5 75
2018-01-10 16:00:00 21 28 Norte 45 Norte 0 1021.2 -1.9 69
2018-01-10 15:00:00 21.2 32 Norte 46 Norte 0 1021.4 -2.6 69
2018-01-10 14:00:00 21.7 31 Norte 41 Nordeste 0 1022 -2.3 66
2018-01-10 13:00:00 21.1 31 Norte 39 Nordeste 0 1023.1 -0.8 71
2018-01-10 12:00:00 21.1 21 Norte 32 Norte 0 1024 0.9 68
2018-01-10 11:00:00 21.2 19 Norte 28 Norte 0 1024.3 1.9 66
2018-01-10 10:00:00 19.3 10 Norte 24 Noroeste 0 1023.9 2.3 77
2018-01-10 09:00:00 18.1 11 Noroeste 22 Noroeste 0 1023.1 2.3 81
2018-01-10 08:00:00 17.2 10 Norte 26 Norte 0 1022.4 1.9 91
2018-01-10 07:00:00 17.6 10 Norte 17 Norte 0 1021.6 1 82
2018-01-10 06:00:00 17.4 9 Norte 21 Norte 0 1020.8 0 79
2018-01-10 05:00:00 15.7 11 Norte 15 Norte 0 1020.5 -0.4 81
2018-01-10 04:00:00 15.1 4 Oeste 8 Oeste 0 1020.6 -0.9 84
2018-01-10 03:00:00 14.9 3 Oeste 5 Oeste 0 1020.8 -1.4 84
2018-01-10 02:00:00 15.3 0 Calma 8 Noroeste 0 1020.9 -1.6 84
2018-01-10 01:00:00 16 0 Calma 11 Oeste 0 1021.5 -0.6 83
2018-01-10 00:00:00 17 4 Oeste 5 Oeste 0 1022.2 0.3 85
2018-01-09 23:00:00 17.9 4 Noroeste 9 Noroeste 0 1022.5 1.2 82
2018-01-09 22:00:00 18.3 0 Calma 8 Sudoeste 0 1022.1 1.4 82
2018-01-09 21:00:00 18.3 3 Sudoeste 8 Sudoeste 0 1021.9 1.9 82
2018-01-09 20:00:00 18.3 0 Calma 9 Sudoeste 0 1021.3 1.6 82
2018-01-09 19:00:00 18.4 4 Sur 11 Este 0 1020.7 1.2 82
2018-01-09 18:00:00 18.8 5 Este 15 Nordeste 0 1020 0.7 79
2018-01-09 17:00:00 18.9 9 Nordeste 15 Nordeste 0 1019.7 0.6 78
2018-01-09 16:00:00 19.1 7 Este 13 Este 0 1019.5 0.1 78
2018-01-09 15:00:00 19.4 8 Este 18 Este 0 1019.3 -0.8 76
2018-01-09 14:00:00 19.8 12 Nordeste 26 Nordeste 0 1019.1 -1 72
2018-01-09 13:00:00 19.9 18 Nordeste 28 Nordeste 0 1019.4 -0.6 72
2018-01-09 12:00:00 20.3 21 Nordeste 30 Nordeste 0 1020.1 0.9 70
2018-01-09 11:00:00 19.9 19 Nordeste 26 Norte 0 1020.1 1.6 70
2018-01-09 10:00:00 18.7 16 Norte 24 Norte 0 1020 2.3 73
2018-01-09 09:00:00 16.7 5 Noroeste 11 Noroeste 0 1019.2 2.1 77
2018-01-09 08:00:00 14.4 5 Oeste 8 Oeste 0 1018.5 1.8 82
2018-01-09 07:00:00 15 3 Noroeste 9 Noroeste 0 1017.7 0.9 81
2018-01-09 06:00:00 15 5 Oeste 8 Oeste 0 1017.1 -0.2 80
2018-01-09 05:00:00 14.4 4 Oeste 11 Oeste 0 1016.7 -0.6 82
2018-01-09 04:00:00 15.1 9 Oeste 11 Noroeste 0 1016.8 -0.7 79
2018-01-09 03:00:00 15.7 8 Noroeste 13 Oeste 0 1017.3 -0.8 76
2018-01-09 02:00:00 15.8 8 Norte 15 Norte 0 1017.3 -0.6 78
2018-01-09 01:00:00 15.9 9 Noroeste 15 Noroeste 0 1017.5 0.1 79
2018-01-09 00:00:00 15.9 5 Noroeste 13 Noroeste 0 1018.1 1 79
2018-01-08 23:00:00 16.2 5 Oeste 18 Norte 0 1017.9 0.9 79
2018-01-08 22:00:00 16.9 10 Norte 17 Norte 0 1017.4 0.6 79
2018-01-08 21:00:00 16.9 6 Oeste 18 Norte 0 1017.1 1.3 78
2018-01-08 20:00:00 17.6 12 Norte 21 Norte 0 1017 2 76
2018-01-08 19:00:00 17.8 8 Norte 21 Norte 0 1016.8 2.4 74
2018-01-08 18:00:00 17.8 11 Norte 30 Norte 0 1015.8 1.6 75
2018-01-08 17:00:00 18.4 21 Norte 32 Norte 0 1015 0.5 75
2018-01-08 16:00:00 18.8 18 Norte 33 Norte 0 1014.4 -0.1 74
2018-01-08 15:00:00 19 24 Norte 35 Nordeste 0 1014.2 -1.4 75
2018-01-08 14:00:00 19.5 4 Oeste 28 Oeste 0 1014.5 -1.7 62
2018-01-08 13:00:00 19.9 21 Noroeste 37 Norte 0 1014.5 -1 63
2018-01-08 12:00:00 19.8 26 Norte 35 Nordeste 0 1015.6 0.9 66
2018-01-08 11:00:00 19.5 13 Norte 32 Noroeste 0 1016.2 2.3 63
2018-01-08 10:00:00 18 16 Noroeste 28 Noroeste 0 1015.5 1.9 70
2018-01-08 09:00:00 17.1 8 Norte 24 Norte 0 1014.7 1.8 73
2018-01-08 08:00:00 16.4 7 Norte 17 Norte 0 1013.9 1.8 74
2018-01-08 07:00:00 16.1 8 Norte 30 Noroeste 0 1013.6 1.6 80
2018-01-08 06:00:00 16.6 10 Norte 26 Noroeste 0 1012.9 0.6 67
2018-01-08 05:00:00 16 13 Noroeste 22 Noroeste 0 1012.1 -0.4 66
2018-01-08 04:00:00 16.3 11 Norte 21 Noroeste 0 1012 -1.1 71
2018-01-08 03:00:00 16.1 11 Noroeste 30 Norte 0 1012.3 -1.2 69
2018-01-08 02:00:00 16.4 13 Noroeste 24 Noroeste 0 1012.5 -0.8 68
2018-01-08 01:00:00 16.6 12 Noroeste 28 Noroeste 0 1013.1 0.1 68
2018-01-08 00:00:00 16.5 13 Noroeste 28 Noroeste 0 1013.5 1.2 69
2018-01-07 23:00:00 16.9 17 Noroeste 35 Noroeste 0 1013.3 1.3 63
2018-01-07 22:00:00 16.9 13 Noroeste 28 Noroeste 0 1013 1.1 63
2018-01-07 21:00:00 16.9 16 Noroeste 30 Oeste 0 1012.3 0.7 62
2018-01-07 20:00:00 17.2 15 Noroeste 33 Noroeste 0 1012 0.4 55
2018-01-07 19:00:00 17.2 21 Norte 33 Noroeste 0 1011.9 0.6 56
2018-01-07 18:00:00 17.7 22 Norte 46 Norte 0 1011.6 1.1 57
2018-01-07 17:00:00 18.9 29 Norte 46 Norte 0 1011.6 0.5 53
2018-01-07 16:00:00 19.5 27 Norte 48 Norte 0 1011.3 -0.9 54
2018-01-07 15:00:00 19.8 28 Norte 45 Noroeste 0 1010.5 -2.3 43
2018-01-07 14:00:00 19.5 23 Norte 41 Noroeste 0 1011.1 -1.6 53
2018-01-07 13:00:00 19 24 Norte 48 Noroeste 0 1012.2 -0.3 52
2018-01-07 12:00:00 18 26 Norte 54 Noroeste 0 1012.8 0.9 62
2018-01-07 11:00:00 17.1 20 Norte 41 Norte 0 1012.7 1.5 63
2018-01-07 10:00:00 17.5 22 Norte 39 Norte 0 1012.5 1.8 61
2018-01-07 09:00:00 15.3 15 Norte 42 Norte 0.3 1011.9 1.5 72
2018-01-07 08:00:00 14.8 13 Norte 41 Norte 0.2 1011.2 0.6 71
2018-01-07 07:00:00 15.8 19 Norte 33 Norte 0 1010.7 -0.1 65
2018-01-07 06:00:00 15.9 22 Norte 39 Norte 0 1010.4 -0.6 66
2018-01-07 05:00:00 14 15 Norte 37 Noroeste 0.8 1010.6 -0.5 86
2018-01-07 04:00:00 14.9 13 Norte 39 Norte 0.6 1010.8 -0.3 81
2018-01-07 03:00:00 15.2 18 Norte 32 Norte 0 1011 0.1 76
2018-01-07 02:00:00 15.5 19 Norte 41 Norte 0.5 1011.1 -0.4 74
2018-01-07 01:00:00 15.2 17 Norte 41 Norte 0.9 1011.1 0.1 81
2018-01-07 00:00:00 15.7 16 Noroeste 42 Noroeste 0.2 1010.9 0.1 78
2018-01-06 23:00:00 15.3 15 Noroeste 39 Norte 0.5 1011.5 0.8 81
2018-01-06 22:00:00 16.4 14 Noroeste 37 Noroeste 0 1011 0.8 72
2018-01-06 21:00:00 15.5 18 Noroeste 33 Norte 0.1 1010.8 0.6 83
2018-01-06 20:00:00 16.4 15 Noroeste 37 Noroeste 0.1 1010.7 0.3 73
2018-01-06 19:00:00 16.1 15 Norte 37 Noroeste 0 1010.2 0.3 78
2018-01-06 18:00:00 16.5 19 Norte 46 Noroeste 0 1010.2 0.1 76
2018-01-06 17:00:00 18.6 25 Norte 55 Noroeste 0 1010.4 -0.1 59
2018-01-06 16:00:00 19.6 33 Noroeste 58 Norte 0 1009.9 -1.3 56
2018-01-06 15:00:00 18.1 26 Noroeste 52 Noroeste 0 1010.1 -2.3 75
2018-01-06 14:00:00 19.1 28 Noroeste 50 Noroeste 0 1010.5 -2.7 61
2018-01-06 13:00:00 19.1 27 Noroeste 45 Noroeste 0 1011.2 -2.1 61
2018-01-06 12:00:00 19.4 29 Norte 50 Norte 0 1012.4 -0.5 60
2018-01-06 11:00:00 19.4 6 Sudoeste 42 Noroeste 0 1013.2 0.9 69
2018-01-06 10:00:00 17.8 24 Noroeste 41 Norte 0 1013.3 1.2 66
2018-01-06 09:00:00 18.3 24 Norte 39 Norte 0 1012.9 1.3 57
2018-01-06 08:00:00 17.5 17 Noroeste 39 Noroeste 0 1012.3 -0.1 63
2018-01-06 07:00:00 16.8 11 Noroeste 22 Norte 0 1012.1 -0.8 72
2018-01-06 06:00:00 16.9 7 Oeste 33 Noroeste 0 1011.6 -1.8 73
2018-01-06 05:00:00 15.5 10 Oeste 15 Oeste 0 1012.4 -1.2 70
2018-01-06 04:00:00 15 9 Oeste 11 Oeste 0 1012.9 -1.6 73
2018-01-06 03:00:00 15 3 Noroeste 15 Oeste 0 1013.4 -1.7 76
2018-01-06 02:00:00 15 6 Sudoeste 15 Oeste 0 1013.6 -2.1 79
2018-01-06 01:00:00 15.4 10 Oeste 13 Oeste 0 1014.5 -1.6 83
2018-01-06 00:00:00 15.3 5 Oeste 11 Oeste 0 1015.1 -0.9 85
2018-01-05 23:00:00 15.1 0 Calma 11 Oeste 0 1015.7 -0.7 83
2018-01-05 22:00:00 15.5 3 Noroeste 11 Oeste 0 1016.1 -0.3 82
2018-01-05 21:00:00 16 5 Noroeste 11 Noroeste 0 1016 0 76
2018-01-05 20:00:00 17.2 10 Noroeste 15 Noroeste 0 1016.4 0.5 74
2018-01-05 19:00:00 18.1 10 Norte 22 Norte 0 1016.4 1 72
2018-01-05 18:00:00 18.8 15 Norte 22 Nordeste 0 1016 0.3 73
2018-01-05 17:00:00 19.1 14 Nordeste 22 Nordeste 0 1015.9 -0.1 74
2018-01-05 16:00:00 19.5 14 Nordeste 21 Nordeste 0 1015.4 -1.9 71
2018-01-05 15:00:00 19.5 10 Este 21 Este 0 1015.7 -3.1 71
2018-01-05 14:00:00 19.6 12 Este 21 Este 0 1016 -4 70
2018-01-05 13:00:00 19.6 17 Nordeste 33 Nordeste 0 1017.3 -2.6 70
2018-01-05 12:00:00 19.9 26 Nordeste 33 Nordeste 0 1018.8 -0.4 69
2018-01-05 11:00:00 19.4 22 Norte 37 Norte 0 1020 0.9 74
2018-01-05 10:00:00 18.1 13 Norte 21 Norte 0 1019.9 1 80
2018-01-05 09:00:00 16.1 9 Norte 18 Norte 0 1019.2 -0.1 81
2018-01-05 08:00:00 14.6 12 Norte 18 Noroeste 0 1019.1 -0.7 87
2018-01-05 07:00:00 14.7 14 Norte 18 Norte 0 1018.9 -1.3 86
2018-01-05 06:00:00 15 12 Norte 24 Norte 0 1019.3 -0.9 84
2018-01-05 05:00:00 14.5 14 Norte 26 Norte 0 1019.8 -1.1 85
2018-01-05 04:00:00 15.5 18 Norte 30 Norte 0 1020.2 -1.2 84
2018-01-05 03:00:00 15.4 15 Norte 28 Norte 0 1020.2 -1.8 83
2018-01-05 02:00:00 15.4 17 Norte 26 Norte 0 1020.9 -1.2 81
2018-01-05 01:00:00 15.8 15 Norte 26 Norte 0 1021.4 -0.5 82
2018-01-05 00:00:00 16 15 Norte 26 Norte 0 1022 0.3 81
2018-01-04 23:00:00 16.2 14 Norte 24 Norte 0 1022.1 0.7 85
2018-01-04 22:00:00 16.7 14 Norte 28 Norte 0 1021.9 0.5 84
2018-01-04 21:00:00 17.4 17 Norte 30 Norte 0 1021.7 0.5 83
2018-01-04 20:00:00 17.6 17 Norte 28 Norte 0 1021.4 0.1 84
2018-01-04 19:00:00 18.1 17 Norte 28 Norte 0 1021.4 -0.1 84
2018-01-04 18:00:00 19.1 16 Norte 30 Norte 0 1021.2 -0.6 78
2018-01-04 17:00:00 20.1 24 Norte 35 Norte 0 1021.3 -1 73
2018-01-04 16:00:00 20.8 27 Norte 39 Norte 0 1021.5 -1.7 70
2018-01-04 15:00:00 21 30 Norte 37 Norte 0 1021.8 -2.3 68
2018-01-04 14:00:00 21.1 30 Norte 39 Nordeste 0 1022.3 -2.1 68
2018-01-04 13:00:00 21 29 Norte 37 Nordeste 0 1023.2 -1.2 68
2018-01-04 12:00:00 21 30 Norte 39 Norte 0 1024.1 0.1 67
2018-01-04 11:00:00 20.2 28 Norte 37 Norte 0 1024.4 0.8 69
2018-01-04 10:00:00 19 22 Norte 32 Norte 0 1024.4 1.4 74
2018-01-04 09:00:00 17.8 17 Norte 26 Norte 0 1024 1.4 78
2018-01-04 08:00:00 16.6 17 Norte 28 Noroeste 0 1023.6 0.9 81
2018-01-04 07:00:00 16.2 14 Norte 22 Norte 0 1023 0.1 80
2018-01-04 06:00:00 16.1 14 Norte 26 Norte 0 1022.6 0 79
2018-01-04 05:00:00 16.9 14 Norte 32 Norte 0 1022.7 -0.1 65
2018-01-04 04:00:00 18.4 17 Norte 26 Norte 0 1022.9 -0.2 37
2018-01-04 03:00:00 19.8 13 Norte 22 Norte 0 1022.6 -1.2 22
2018-01-04 02:00:00 20.4 11 Norte 26 Norte 0 1022.8 -1 22
2018-01-04 01:00:00 20.1 16 Norte 26 Norte 0 1023.1 -0.7 26
2018-01-04 00:00:00 20.3 17 Norte 28 Noroeste 0 1023.8 0.3 26
2018-01-03 23:00:00 19.4 16 Norte 30 Norte 0 1023.8 1 35
2018-01-03 22:00:00 18.6 15 Norte 26 Norte 0 1023.8 1.3 51
2018-01-03 21:00:00 18.1 16 Norte 28 Norte 0 1023.5 1.2 64
2018-01-03 20:00:00 18 16 Norte 26 Norte 0 1022.8 0.6 77
2018-01-03 19:00:00 18.7 16 Norte 28 Norte 0 1022.5 0.4 82
2018-01-03 18:00:00 19.7 18 Norte 30 Norte 0 1022.3 0 78
2018-01-03 17:00:00 20.9 23 Norte 32 Norte 0 1022.2 -0.6 73
2018-01-03 16:00:00 21.9 20 Nordeste 28 Nordeste 0 1022.1 -1.4 70
2018-01-03 15:00:00 22.5 22 Norte 26 Nordeste 0 1022.3 -2 64
2018-01-03 14:00:00 22.3 21 Norte 32 Nordeste 0 1022.8 -2.1 58
2018-01-03 13:00:00 22.8 25 Norte 30 Nordeste 0 1023.5 -1.2 55
2018-01-03 12:00:00 22.5 21 Nordeste 33 Norte 0 1024.3 0.3 50
2018-01-03 11:00:00 20.4 26 Norte 35 Norte 0 1024.9 1.4 71
2018-01-03 10:00:00 18.9 19 Norte 30 Norte 0 1024.7 1.7 77
2018-01-03 09:00:00 17.9 18 Norte 32 Norte 0 1024 1.7 79
2018-01-03 08:00:00 16.5 19 Norte 30 Norte 0 1023.5 1.4 80
2018-01-03 07:00:00 16.4 14 Norte 30 Noroeste 0 1023 0.5 85
2018-01-03 06:00:00 16.6 17 Norte 26 Norte 0 1022.3 -0.2 86
2018-01-03 05:00:00 16.9 15 Norte 28 Norte 0 1022.1 -0.5 86
2018-01-03 04:00:00 16.9 18 Norte 28 Norte 0 1022.5 -0.4 79
2018-01-03 03:00:00 17.5 21 Norte 30 Norte 0 1022.5 -0.9 63
2018-01-03 02:00:00 19.2 16 Norte 28 Norte 0 1022.6 -0.8 33
2018-01-03 01:00:00 20.6 15 Norte 26 Norte 0 1022.9 -0.5 32
2018-01-03 00:00:00 21 16 Norte 28 Norte 0 1023.4 0.1 29
2018-01-02 23:00:00 21.2 17 Norte 30 Noroeste 0 1023.4 0.6 28
2018-01-02 22:00:00 20.1 23 Noroeste 35 Norte 0 1023.4 0.8 47
2018-01-02 21:00:00 19.5 17 Norte 30 Norte 0 1023.3 1.2 51
2018-01-02 20:00:00 20.3 17 Norte 30 Norte 0 1022.8 0.9 47
2018-01-02 19:00:00 19.4 15 Norte 28 Norte 0 1022.6 0.6 71
2018-01-02 18:00:00 20.7 17 Norte 35 Norte 0 1022.1 0 67
2018-01-02 17:00:00 23.4 15 Norte 28 Norte 0 1021.9 -0.8 38
2018-01-02 16:00:00 23.6 16 Norte 30 Norte 0 1022 -1.4 40
2018-01-02 15:00:00 24 15 Norte 32 Norte 0 1022.1 -1.9 40
2018-01-02 14:00:00 23.6 17 Norte 32 Norte 0 1022.7 -1.9 50
2018-01-02 13:00:00 23.5 21 Norte 30 Norte 0 1023.4 -1 46
2018-01-02 12:00:00 22.5 15 Norte 30 Norte 0 1024 0.4 56
2018-01-02 11:00:00 21.2 19 Norte 33 Norte 0 1024.6 1.6 62
2018-01-02 10:00:00 20 20 Norte 35 Norte 0 1024.4 1.8 69
2018-01-02 09:00:00 18.4 20 Norte 35 Noroeste 0 1023.6 1.2 75
2018-01-02 08:00:00 17.5 19 Norte 32 Norte 0 1023 0.6 77
2018-01-02 07:00:00 17.4 16 Norte 33 Norte 0 1022.6 0 79
2018-01-02 06:00:00 17.4 18 Norte 30 Norte 0 1022.4 -0.4 80
2018-01-02 05:00:00 17.3 17 Norte 30 Norte 0 1022.4 -0.5 78
2018-01-02 04:00:00 17.3 17 Norte 28 Norte 0 1022.6 -0.5 79
2018-01-02 03:00:00 17.7 16 Norte 32 Norte 0 1022.8 -0.5 84
2018-01-02 02:00:00 17.9 19 Norte 32 Norte 0 1022.9 -0.5 86
2018-01-02 01:00:00 18.1 19 Norte 33 Norte 0 1023.1 0 83
2018-01-02 00:00:00 18.4 22 Norte 35 Norte 0 1023.3 0.8 81
2018-01-01 23:00:00 18.4 21 Norte 41 Norte 0 1023.4 1 81
2018-01-01 22:00:00 18.7 26 Norte 41 Norte 0 1023.1 1.2 81
2018-01-01 21:00:00 18.8 24 Norte 45 Norte 0 1022.5 1.6 76
2018-01-01 20:00:00 18.9 26 Norte 41 Norte 0 1022.4 1.7 75
2018-01-01 19:00:00 19.1 27 Norte 48 Noroeste 0 1021.9 1.9 72
2018-01-01 18:00:00 19.7 31 Norte 50 Noroeste 0 1020.9 0.1 68
2018-01-01 17:00:00 21.2 33 Norte 52 Norte 0 1020.7 -1.2 58
2018-01-01 16:00:00 22.8 31 Norte 41 Norte 0 1020 -3 54
2018-01-01 15:00:00 22.3 28 Norte 41 Norte 0 1020.8 -3 59
2018-01-01 14:00:00 21.4 28 Norte 48 Norte 0 1021.9 -2.7 64
2018-01-01 13:00:00 21.2 31 Norte 42 Norte 0 1023 -1.5 62
2018-01-01 12:00:00 21 28 Norte 39 Norte 0 1023.8 -0.5 65
2018-01-01 11:00:00 20.4 24 Norte 39 Norte 0 1024.6 0.6 66
2018-01-01 10:00:00 19.6 22 Norte 33 Norte 0 1024.5 1.2 70
2018-01-01 09:00:00 18 17 Norte 32 Norte 0 1024.3 1.4 74
2018-01-01 08:00:00 17.7 18 Norte 35 Norte 0 1024 0.9 78
2018-01-01 07:00:00 17.6 21 Norte 37 Norte 0 1023.3 0 76
2018-01-01 06:00:00 17.6 22 Norte 37 Norte 0 1022.9 -0.6 77
2018-01-01 05:00:00 17.8 20 Norte 39 Noroeste 0 1023.1 -0.5 79
2018-01-01 04:00:00 17.6 19 Norte 35 Noroeste 0 1023.3 -0.3 79
2018-01-01 03:00:00 17.8 21 Norte 39 Norte 0 1023.5 -0.6 79
2018-01-01 02:00:00 18 15 Norte 32 Norte 0 1023.6 -0.6 77
2018-01-01 01:00:00 18.1 17 Norte -- -- -- 1023.6 0 69
2018-01-01 00:00:00 18.6 16 Norte 33 Noroeste 0 1024.1 0.8 71
2017-12-31 23:00:00 19 21 Norte 32 Norte 0 1024.2 1.5 68
2017-12-31 22:00:00 19.5 20 Norte 41 Noroeste 0 1023.6 2 63
2017-12-31 21:00:00 19.2 23 Norte 37 Norte 0 1023.3 2.2 69
2017-12-31 20:00:00 19.3 21 Norte 35 Norte 0 1022.7 2.1 69
2017-12-31 19:00:00 19.5 15 Norte 33 Norte 0 1021.6 1 67
2017-12-31 18:00:00 20.2 19 Norte 33 Norte 0 1021.1 0.5 71
2017-12-31 17:00:00 21.5 21 Norte 32 Norte 0 1020.6 -0.3 58
2017-12-31 16:00:00 22 22 Norte 33 Norte 0 1020.6 -1.1 59
2017-12-31 15:00:00 22.8 19 Norte 33 Norte 0 1020.6 -2 50
2017-12-31 14:00:00 22.9 28 Norte 35 Norte 0 1020.9 -2.2 58
2017-12-31 13:00:00 23.3 23 Norte 35 Norte 0 1021.7 -1 49
2017-12-31 12:00:00 23.1 23 Norte 37 Norte 0 1022.6 0.5 42
2017-12-31 11:00:00 22.1 23 Norte 35 Norte 0 1023.1 2 42
2017-12-31 10:00:00 20.6 21 Norte 32 Norte 0 1022.7 2.1 54
2017-12-31 09:00:00 19.8 15 Norte 28 Norte 0 1022.1 1.8 40
2017-12-31 08:00:00 17.3 16 Norte 24 Norte 0 1021.1 1.2 51
2017-12-31 07:00:00 17.3 14 Norte 22 Norte 0 1020.6 0.6 51
2017-12-31 06:00:00 18.5 14 Norte 24 Norte 0 1020.3 0.1 51
2017-12-31 05:00:00 18 13 Norte 21 Norte 0 1019.9 -0.1 50
2017-12-31 04:00:00 17.6 12 Norte 24 Norte 0 1020 -0.2 72
2017-12-31 03:00:00 18 15 Norte 22 Norte 0 1020.2 -0.4 65
2017-12-31 02:00:00 18 9 Norte 15 Norte 0 1020 -0.7 62
2017-12-31 01:00:00 18.7 10 Norte -- -- -- 1020.2 -0.3 61
2017-12-31 00:00:00 17.9 8 Norte 15 Norte 0 1020.6 0.3 77